^^
Meteo Knjazevac Station Historical Data
Daily Summary for June 26, 2022 Units:  Metric    English   Both
Daily Weekly Monthly Yearly Custom
  High: Low: Average:
Temperature: 18.8 °C 15.6 °C 17.6 °C
Dew Point: 18.7 °C 15.4 °C 17.4 °C
Humidity: 99% 98% 99%
Wind Speed: 8km/h 0km/h 2.9km/h
Wind Gust: 19.3km/h - -
Wind- - South
Pressure: 1017.8 hPa 1016.5 hPa -
Precipitation: 0.25 mm    
Historical Graphs
 
 
Tabular Data for June 26, 2022
Time Temperature Dew Point Pressure Wind Wind Speed Wind Gust Humidity Rainfall Rate (Hourly) solar Conditions
00:00 18.8 °C 18.5 °C 1017.2 hPa ESE 3.2 km/h 11.3 km/h 98% 0 mm 0 W/m2
00:10 18.8 °C 18.7 °C 1017.2 hPa SE 4.8 km/h 12.9 km/h 99% 0.25 mm 0 W/m2
00:20 18.6 °C 18.4 °C 1017.2 hPa ESE 8 km/h 17.7 km/h 99% 0 mm 0 W/m2
00:30 18.6 °C 18.4 °C 1017.2 hPa ESE 3.2 km/h 16.1 km/h 99% 0 mm 0 W/m2
00:50 18.5 °C 18.3 °C 1017.2 hPa SSE 3.2 km/h 9.7 km/h 99% 0 mm 0 W/m2
01:00 18.5 °C 18.3 °C 1017.2 hPa SE 3.2 km/h 9.7 km/h 99% 0 mm 0 W/m2
01:10 18.5 °C 18.3 °C 1016.8 hPa SE 8 km/h 19.3 km/h 99% 0 mm 0 W/m2
01:20 18.5 °C 18.3 °C 1016.5 hPa SSE 4.8 km/h 14.5 km/h 99% 0 mm 0 W/m2
01:30 18.4 °C 18.2 °C 1016.5 hPa South 1.6 km/h 11.3 km/h 99% 0 mm 0 W/m2
01:40 18.4 °C 18.2 °C 1016.8 hPa WNW 1.6 km/h 8 km/h 99% 0 mm 0 W/m2
01:50 18.4 °C 18.2 °C 1016.8 hPa NE 4.8 km/h 9.7 km/h 99% 0 mm 0 W/m2
02:00 18.4 °C 18.1 °C 1016.8 hPa SE 4.8 km/h 11.3 km/h 98% 0 mm 0 W/m2
02:10 18.4 °C 18.1 °C 1016.8 hPa SSE 1.6 km/h 8 km/h 98% 0 mm 0 W/m2
02:20 18.3 °C 18 °C 1016.8 hPa SSW 3.2 km/h 8 km/h 98% 0 mm 0 W/m2
02:30 18.1 °C 17.8 °C 1017.2 hPa SW 1.6 km/h 4.8 km/h 98% 0 mm 0 W/m2
02:40 17.9 °C 17.6 °C 1017.2 hPa West 1.6 km/h 4.8 km/h 98% 0 mm 0 W/m2
02:50 17.8 °C 17.5 °C 1017.2 hPa WSW 1.6 km/h 3.2 km/h 98% 0 mm 0 W/m2
03:00 17.6 °C 17.4 °C 1017.2 hPa WSW 4.8 km/h 8 km/h 99% 0 mm 0 W/m2
03:10 17.3 °C 17.2 °C 1017.2 hPa West 4.8 km/h 11.3 km/h 99% 0 mm 0 W/m2
03:20 17.1 °C 16.9 °C 1017.2 hPa West 3.2 km/h 9.7 km/h 99% 0 mm 0 W/m2
03:30 16.9 °C 16.7 °C 1017.5 hPa South 1.6 km/h 6.4 km/h 99% 0 mm 0 W/m2
03:40 16.8 °C 16.7 °C 1017.5 hPa WSW 3.2 km/h 4.8 km/h 99% 0 mm 0 W/m2
03:50 16.6 °C 16.4 °C 1017.5 hPa Calm   4.8 km/h 99% 0 mm 0 W/m2
04:00 16.4 °C 16.2 °C 1017.8 hPa NW 1.6 km/h 3.2 km/h 99% 0 mm 0 W/m2
04:10 16.2 °C 16.1 °C 1017.5 hPa North 1.6 km/h 3.2 km/h 99% 0 mm 0 W/m2
04:20 16.1 °C 15.9 °C 1017.8 hPa NNE 1.6 km/h 3.2 km/h 99% 0 mm 0 W/m2
04:30 16.1 °C 15.9 °C 1017.8 hPa NNE 1.6 km/h 4.8 km/h 99% 0 mm 0 W/m2
04:40 15.9 °C 15.7 °C 1017.8 hPa Calm   4.8 km/h 99% 0 mm 0 W/m2
04:50 15.7 °C 15.6 °C 1017.8 hPa Calm   3.2 km/h 99% 0 mm 0 W/m2
05:10 15.6 °C 15.4 °C 1017.8 hPa Calm   4.8 km/h 99% 0 mm 12 W/m2
Knjazevac, Serbia
Compliments of Weather Underground - 2 mb